Красные Липки

Карта отелей и гостиниц, располагающихся рядом с аэропортом Красные Липки :

Красные Липки Волгоградская область 49° 37' 14.4012" N, 43° 46' 56.82" E
Код аэродрома ИКАО
ZE80
Код аэродрома RU
ЗЕ80
Координаты
N49.62067° E043.78245°
Превышение над уровнем моря
164
Основная полоса
08/26
Курс магнитный
077,8/257,8
Длина основной ВПП
1200
Ширина основной ВПП
40
Покрытие основной ВПП
Нетвёрдое (грунт)
Освещение ВПП
Нет
Тип: 
Аэродром
Класс аэродрома: 
Принадлежность: 
АОН
Статус: 
Недействующий
Сайт: 
E-mail аэродрома: 
Страна: 
Россия
Регион: 
Волгоградская область
Город: 
Дополнительная информация: 
Оператор: ООО "Царь-продукт". Используется для сельскохозяйственных работ. Самолетов и обслуживания никакого нет. По "убитой" ГВПП ездят тракторы.

Найти трансфер

С помощью этой формы Вы можете найти трансфер из аэропорта Красные Липки в город, аэропорт или вокзал:

Карта места

Javascript is required to view this map.

Погода в аэропортах:

Авиационная погода в Братске

Регион: 
Погода METAR: 
UIBB 051100Z 32003MPS 1100 R30/1100N FU BKN018CB 20/15 Q1004 R30/CLRD60 NOSIG RMK QFE710/0947
Время наблюдения
2021-08-05T11:00:00Z
Температура C
20.0
Точка росы
15.0
Направление ветра
320
Скорость ветра (узлы)
6
Метео видимость
0.68
Явления погоды
FU
Условия полета
LIFR
Аэропорт подробнее: 

Авиационная погода в Игнатьево

Регион: 
Погода METAR: 
UHBB 051100Z 28002MPS 220V300 9999 -TSRA BKN033CB 20/20 Q0995 R36/290350 NOSIG RMK QFE729/0972
Время наблюдения
2021-08-05T11:00:00Z
Температура C
20.0
Точка росы
20.0
Направление ветра
280
Скорость ветра (узлы)
4
Метео видимость
6.21
Явления погоды
-TSRA
Условия полета
VFR
Аэропорт подробнее: 

Авиационная погода в Лаппеэнранта

Регион: 
Погода METAR: 
EFLP 051050Z AUTO 36005KT 290V060 9999 VCSH //////CB 19/07 Q1016
Время наблюдения
2021-08-05T10:50:00Z
Температура C
19.0
Точка росы
7.0
Направление ветра
360
Скорость ветра (узлы)
5
Метео видимость
6.21
Явления погоды
VCSH
Условия полета

Авиационная погода в Оренбурге

Регион: 
Погода METAR: 
UWOO 051100Z 22005MPS 200V260 9999 TS SCT040CB 32/14 Q1009 R26/CLRD65 NOSIG RMK QFE746/0995
Время наблюдения
2021-08-05T11:00:00Z
Температура C
32.0
Точка росы
14.0
Направление ветра
220
Скорость ветра (узлы)
10
Метео видимость
6.21
Явления погоды
TS
Условия полета
VFR
Аэропорт подробнее: